Terminal Aerodrome Forecast
Issued by NWS Northern Indiana

Home | Current Version | Previous Version | Text Only | Print | Product List | Glossary Off
Versions: 1 2 3 4 5 6 7 8 9 10 11 12 13 14 15 16

000
FTUS43 KIWX 172326
TAFFWA
TAF
KFWA 172326Z 1800/1824 23015G20KT P6SM SCT060 BKN200
     FM180200 24009KT P6SM SCT070 BKN200
     FM181200 25008KT P6SM BKN030
     FM181600 27014G20KT P6SM BKN040=

USA.gov is the U.S. government's official web portal to all federal, state and local government web resources and services.